Dokkum, Netherlands
Current Conditions -  °F | °C
As of 5:16 PM on Friday 24 Oct 2014 (Local Time) from EHLW Reporting Station
Drizzle Drizzle  
Wind Chill: 54°   Ceiling: 500
Heat Index: 54°   Visibility: 2.6mi
Dew Point: 52°   Wind: 12mph
Humidity: 94%   Direction: 190°S
Pressure: 29.97"   Gusts: NA
Location:  53.32°N, 6°E
Report Text: EHLW 241516Z AUTO 19010KT 4300 DZ SCT004 BKN005 OVC006 12/11 Q1015 YLO
Loading
Personal Weather Stations






























Interactive Weather Map
Tropical Storm Tracking
New forecast layout! Learn more

10-Day Weather Forecast

Advertisements
Track Severe Weather on mobile